Time;durP1;ratioP1;P1;durP2;ratioP2;P2;SDS_P1;SDS_P2;PMS_P1;PMS_P2;Temp;Humidity;BMP_temperature;BMP_pressure;BME280_temperature;BME280_humidity;BME280_pressure;Samples;Min_cycle;Max_cycle;Signal;HPM_P1;HPM_P2
2023/10/23 00:00:35;;;;;;;13.18;4.07;;;;;;;;;;5111712;28;20038;-67
2023/10/23 00:03:40;;;;;;;11.05;4.03;;;;;;;;;;5111390;28;20521;-66
2023/10/23 00:06:47;;;;;;;14.27;4.30;;;;;;;;;;5111710;28;20048;-66
2023/10/23 00:09:52;;;;;;;7.50;3.50;;;;;;;;;;5111652;28;20040;-66
2023/10/23 00:12:56;;;;;;;11.77;3.83;;;;;;;;;;5111304;28;20040;-66
2023/10/23 00:16:00;;;;;;;9.30;3.40;;;;;;;;;;5111167;28;20043;-66
2023/10/23 00:19:07;;;;;;;8.82;3.00;;;;;;;;;;5111389;28;20040;-67
2023/10/23 00:22:11;;;;;;;12.07;3.22;;;;;;;;;;5111015;28;20054;-67
2023/10/23 00:25:15;;;;;;;10.85;3.42;;;;;;;;;;5111465;28;20045;-67
2023/10/23 00:28:20;;;;;;;6.75;3.33;;;;;;;;;;5110411;28;20497;-67
2023/10/23 00:31:24;;;;;;;8.05;3.38;;;;;;;;;;5113538;28;20036;-66
2023/10/23 00:34:29;;;;;;;8.77;3.53;;;;;;;;;;5115140;28;20032;-67
2023/10/23 00:37:34;;;;;;;12.23;3.40;;;18.20;99.90;;;;;;5114541;28;20035;-67
2023/10/23 00:40:38;;;;;;;12.88;3.22;;;;;;;;;;5114527;28;20042;-67
2023/10/23 00:43:43;;;;;;;12.57;3.15;;;;;;;;;;5114149;28;20031;-67
2023/10/23 00:46:48;;;;;;;10.65;3.53;;;;;;;;;;5115063;28;20035;-67
2023/10/23 00:49:52;;;;;;;12.82;3.03;;;19.40;99.90;;;;;;5114111;28;20043;-66
2023/10/23 00:52:57;;;;;;;7.55;2.83;;;;;;;;;;5114793;28;20038;-67
2023/10/23 00:56:02;;;;;;;8.38;3.47;;;;;;;;;;5113775;28;20491;-67
2023/10/23 00:59:09;;;;;;;7.35;3.20;;;18.10;99.90;;;;;;5114536;28;20376;-66
2023/10/23 01:02:14;;;;;;;9.55;3.00;;;19.30;99.90;;;;;;5114687;28;20643;-67
2023/10/23 01:05:18;;;;;;;10.82;3.22;;;;;;;;;;5114487;28;20055;-67
2023/10/23 01:08:23;;;;;;;8.90;3.28;;;;;;;;;;5113963;28;20047;-66
2023/10/23 01:11:27;;;;;;;7.28;2.90;;;;;;;;;;5114623;28;20028;-67
2023/10/23 01:14:31;;;;;;;8.00;2.90;;;;;;;;;;5113516;28;20047;-66
2023/10/23 01:17:36;;;;;;;10.07;2.90;;;;;;;;;;5114342;28;20027;-67
2023/10/23 01:20:40;;;;;;;8.93;3.00;;;18.20;99.90;;;;;;5114368;28;20036;-67
2023/10/23 01:23:47;;;;;;;9.80;2.85;;;17.50;99.90;;;;;;5113524;28;20039;-67
2023/10/23 01:26:51;;;;;;;11.05;2.95;;;;;;;;;;5114191;28;20042;-67
2023/10/23 01:29:56;;;;;;;12.35;3.42;;;;;;;;;;5113975;28;20042;-68
2023/10/23 01:33:00;;;;;;;10.00;3.08;;;;;;;;;;5114091;28;20588;-66
2023/10/23 01:36:04;;;;;;;15.27;3.53;;;;;;;;;;5113747;28;20047;-66
2023/10/23 01:39:09;;;;;;;12.20;2.60;;;;;;;;;;5113105;28;20032;-66
2023/10/23 01:42:14;;;;;;;10.23;2.90;;;;;;;;;;5112926;28;20520;-66
2023/10/23 01:45:21;;;;;;;11.52;3.42;;;;;;;;;;5113897;28;20038;-66
2023/10/23 01:48:26;;;;;;;12.18;2.55;;;;;;;;;;5113932;28;20054;-66
2023/10/23 01:51:30;;;;;;;12.80;2.58;;;;;;;;;;5113665;28;20039;-67
2023/10/23 01:54:35;;;;;;;9.85;3.10;;;;;;;;;;5113938;28;20036;-66
2023/10/23 01:57:39;;;;;;;15.88;3.40;;;;;;;;;;5112605;28;20039;-67
2023/10/23 02:00:43;;;;;;;7.85;3.35;;;;;;;;;;5112679;28;20040;-67
2023/10/23 02:03:48;;;;;;;12.32;3.22;;;;;;;;;;5112221;28;20036;-67
2023/10/23 02:06:52;;;;;;;9.70;3.28;;;;;;;;;;5113407;28;20051;-66
2023/10/23 02:09:57;;;;;;;10.48;3.05;;;;;;;;;;5113128;28;20031;-66
2023/10/23 02:13:01;;;;;;;12.23;3.72;;;;;;;;;;5112334;28;20043;-66
2023/10/23 02:16:05;;;;;;;10.75;3.20;;;;;;;;;;5112206;28;20040;-67
2023/10/23 02:19:09;;;;;;;10.13;2.90;;;;;;;;;;5112350;28;20661;-67
2023/10/23 02:22:14;;;;;;;10.10;3.00;;;;;;;;;;5112120;28;20035;-67
2023/10/23 02:25:18;;;;;;;10.07;3.35;;;;;;;;;;5113202;28;20380;-67
2023/10/23 02:28:23;;;;;;;9.00;3.08;;;;;;;;;;5112958;28;20395;-66
2023/10/23 02:31:28;;;;;;;6.93;2.95;;;;;;;;;;5113010;28;20031;-66
2023/10/23 02:34:36;;;;;;;6.05;3.30;;;18.10;99.90;;;;;;5112943;28;20384;-67
2023/10/23 02:37:40;;;;;;;10.40;3.20;;;;;;;;;;5112763;28;20039;-65
2023/10/23 02:40:54;;;;;;;10.73;3.13;;;19.70;99.90;;;;;;5112710;28;20387;-67
2023/10/23 02:43:58;;;;;;;10.70;2.85;;;;;;;;;;5112645;28;20043;-67
2023/10/23 02:47:03;;;;;;;13.25;3.30;;;;;;;;;;5112569;28;20042;-67
2023/10/23 02:50:08;;;;;;;11.80;3.22;;;;;;;;;;5112774;28;20032;-67
2023/10/23 02:53:12;;;;;;;9.02;3.20;;;;;;;;;;5111613;28;20036;-67
2023/10/23 02:56:16;;;;;;;9.68;2.90;;;;;;;;;;5111313;28;20048;-67
2023/10/23 02:59:21;;;;;;;13.63;2.97;;;;;;;;;;5112104;28;20032;-67
2023/10/23 03:02:26;;;;;;;6.82;3.17;;;;;;;;;;5111963;28;20040;-67
2023/10/23 03:05:30;;;;;;;6.03;2.60;;;;;;;;;;5112059;28;20044;-67
2023/10/23 03:08:35;;;;;;;9.68;2.78;;;;;;;;;;5112451;28;20053;-67
2023/10/23 03:11:39;;;;;;;13.20;3.40;;;;;;;;;;5112157;28;20040;-67
2023/10/23 03:14:44;;;;;;;8.25;3.15;;;;;;;;;;5111322;28;20046;-67
2023/10/23 03:17:48;;;;;;;10.68;3.45;;;;;;;;;;5112219;28;20048;-67
2023/10/23 03:20:52;;;;;;;7.78;3.15;;;;;;;;;;5111765;28;20065;-65
2023/10/23 03:23:57;;;;;;;7.05;3.58;;;;;;;;;;5112074;28;20035;-66
2023/10/23 03:27:01;;;;;;;9.27;3.08;;;;;;;;;;5111775;28;20043;-66
2023/10/23 03:30:06;;;;;;;12.77;3.38;;;;;;;;;;5111669;28;20039;-66
2023/10/23 03:33:11;;;;;;;9.88;3.17;;;;;;;;;;5111008;28;20513;-67
2023/10/23 03:36:16;;;;;;;8.85;3.05;;;;;;;;;;5111431;28;20039;-67
2023/10/23 03:39:20;;;;;;;10.20;3.08;;;;;;;;;;5111799;28;20028;-66
2023/10/23 03:42:24;;;;;;;7.75;3.00;;;;;;;;;;5111774;28;20046;-66
2023/10/23 03:45:28;;;;;;;10.27;3.58;;;;;;;;;;5111727;28;20035;-67
2023/10/23 03:48:36;;;;;;;17.88;3.55;;;17.80;99.90;;;;;;5110892;28;20032;-66
2023/10/23 03:51:40;;;;;;;11.32;3.20;;;;;;;;;;5110961;28;20034;-68
2023/10/23 03:54:47;;;;;;;10.05;3.30;;;;;;;;;;5111522;28;20036;-65
2023/10/23 03:57:52;;;;;;;8.55;3.30;;;;;;;;;;5112059;28;20074;-66
2023/10/23 04:00:56;;;;;;;8.10;3.40;;;;;;;;;;5111511;28;20040;-66
2023/10/23 04:04:00;;;;;;;8.65;3.25;;;;;;;;;;5111074;28;20036;-67
2023/10/23 04:07:05;;;;;;;12.40;3.65;;;;;;;;;;5115121;28;20139;-66
2023/10/23 04:10:10;;;;;;;12.23;3.53;;;;;;;;;;5115861;28;20644;-66
2023/10/23 04:13:17;;;;;;;10.45;3.50;;;17.70;99.90;;;;;;5115735;28;20031;-66
2023/10/23 04:16:22;;;;;;;9.05;3.65;;;;;;;;;;5115297;28;20058;-66
2023/10/23 04:19:26;;;;;;;11.38;3.28;;;;;;;;;;5115626;28;20031;-66
2023/10/23 04:22:30;;;;;;;7.70;3.30;;;;;;;;;;5115574;28;20055;-66
2023/10/23 04:25:34;;;;;;;9.73;3.35;;;;;;;;;;5115575;28;20475;-66
2023/10/23 04:28:39;;;;;;;13.10;3.72;;;;;;;;;;5115492;28;20043;-66
2023/10/23 04:31:43;;;;;;;7.00;3.30;;;;;;;;;;5115346;28;20467;-66
2023/10/23 04:34:47;;;;;;;11.45;3.50;;;;;;;;;;5115100;28;20380;-66
2023/10/23 04:37:52;;;;;;;12.60;4.05;;;;;;;;;;5115254;28;20054;-66
2023/10/23 04:40:56;;;;;;;8.10;3.20;;;;;;;;;;5114880;28;20383;-66
2023/10/23 04:44:00;;;;;;;12.80;3.53;;;;;;;;;;5115157;28;20040;-67
2023/10/23 04:47:05;;;;;;;7.40;3.40;;;;;;;;;;5114957;28;20039;-66
2023/10/23 04:50:12;;;;;;;14.93;3.58;;;;;;;;;;5115030;28;20035;-66
2023/10/23 04:53:16;;;;;;;9.15;3.03;;;;;;;;;;5114807;28;20535;-67
2023/10/23 04:56:20;;;;;;;7.45;3.30;;;;;;;;;;5114703;28;20043;-66
2023/10/23 04:59:24;;;;;;;11.30;3.72;;;;;;;;;;5114862;28;20032;-66
2023/10/23 05:02:29;;;;;;;8.57;4.18;;;;;;;;;;5114658;28;20519;-67
2023/10/23 05:05:33;;;;;;;10.93;3.97;;;;;;;;;;5114403;28;20039;-66
2023/10/23 05:08:38;;;;;;;8.48;3.47;;;;;;;;;;5113879;28;20054;-66
2023/10/23 05:11:42;;;;;;;8.07;3.83;;;;;;;;;;5114229;28;20032;-66
2023/10/23 05:14:46;;;;;;;8.20;3.55;;;;;;;;;;5114199;28;20035;-66
2023/10/23 05:17:50;;;;;;;16.63;4.18;;;;;;;;;;5113766;28;20490;-66
2023/10/23 05:20:55;;;;;;;12.60;4.00;;;;;;;;;;5113978;28;20035;-67
2023/10/23 05:23:59;;;;;;;16.63;3.70;;;;;;;;;;5114339;28;20046;-67
2023/10/23 05:27:03;;;;;;;9.48;3.58;;;;;;;;;;5114276;28;20035;-67
2023/10/23 05:30:07;;;;;;;8.30;3.20;;;;;;;;;;5113983;28;20032;-67
2023/10/23 05:33:11;;;;;;;9.02;3.22;;;;;;;;;;5114025;28;20065;-67
2023/10/23 05:36:16;;;;;;;11.15;3.25;;;;;;;;;;5113793;28;20043;-67
2023/10/23 05:39:20;;;;;;;11.88;4.03;;;;;;;;;;5114472;28;20043;-67
2023/10/23 05:42:24;;;;;;;9.05;3.80;;;;;;;;;;5114002;28;20035;-67
2023/10/23 05:45:29;;;;;;;7.32;3.30;;;;;;;;;;5113833;28;20043;-67
2023/10/23 05:48:36;;;;;;;9.93;3.10;;;;;;;;;;5113889;28;20043;-67
2023/10/23 05:51:40;;;;;;;13.55;3.65;;;;;;;;;;5113431;28;20040;-66
2023/10/23 05:54:45;;;;;;;13.65;3.85;;;;;;;;;;5113610;28;20044;-67
2023/10/23 05:57:49;;;;;;;12.65;3.40;;;;;;;;;;5113657;28;20039;-67
2023/10/23 06:00:53;;;;;;;11.00;3.10;;;;;;;;;;5113600;28;20036;-67
2023/10/23 06:03:57;;;;;;;8.77;2.85;;;;;;;;;;5113014;28;20044;-67
2023/10/23 06:07:02;;;;;;;11.15;2.97;;;;;;;;;;5113068;28;20039;-67
2023/10/23 06:10:06;;;;;;;8.40;2.88;;;;;;;;;;5112926;28;20030;-67
2023/10/23 06:13:14;;;;;;;10.30;3.10;;;;;;;;;;5113282;28;20032;-61
2023/10/23 06:16:18;;;;;;;11.38;3.08;;;;;;;;;;5112926;28;20515;-63
2023/10/23 06:19:22;;;;;;;8.15;3.40;;;;;;;;;;5113264;28;20043;-62
2023/10/23 06:22:26;;;;;;;6.50;2.58;;;;;;;;;;5112837;28;20036;-64
2023/10/23 06:25:31;;;;;;;7.50;2.92;;;;;;;;;;5112810;28;20059;-63
2023/10/23 06:28:36;;;;;;;15.38;5.03;;;18.90;99.90;;;;;;5111766;28;20039;-64
2023/10/23 06:31:40;;;;;;;12.85;2.60;;;;;;;;;;5112687;28;20054;-64
2023/10/23 06:34:44;;;;;;;10.23;2.72;;;;;;;;;;5112498;28;20043;-64
2023/10/23 06:37:50;;;;;;;8.63;3.15;;;;;;;;;;5112884;28;20047;-62
2023/10/23 06:40:54;;;;;;;13.63;3.30;;;;;;;;;;5112768;28;20035;-63
2023/10/23 06:43:58;;;;;;;10.90;3.20;;;;;;;;;;5112670;28;20051;-62
2023/10/23 06:47:03;;;;;;;10.40;3.22;;;;;;;;;;5112762;28;20040;-62
2023/10/23 06:50:10;;;;;;;41.15;3.80;;;;;;;;;;5111498;28;20059;-61
2023/10/23 06:53:17;;;;;;;6.07;2.92;;;;;;;;;;5112596;28;20391;-62
2023/10/23 06:56:21;;;;;;;9.85;3.05;;;;;;;;;;5112289;28;20047;-62
2023/10/23 06:59:25;;;;;;;8.95;2.95;;;;;;;;;;5112528;28;20360;-62
2023/10/23 07:02:29;;;;;;;8.32;2.42;;;19.40;99.90;;;;;;5112221;28;20048;-62
2023/10/23 07:05:33;;;;;;;7.53;2.60;;;;;;;;;;5111963;28;20160;-63
2023/10/23 07:08:39;;;;;;;7.05;2.13;;;20.20;99.90;;;;;;5112057;28;20039;-63
2023/10/23 07:11:43;;;;;;;6.38;2.55;;;;;;;;;;5112040;28;20042;-63
2023/10/23 07:14:48;;;;;;;6.75;2.20;;;;;;;;;;5110648;28;20031;-63
2023/10/23 07:17:52;;;;;;;10.02;2.17;;;20.50;99.90;;;;;;5111006;28;20040;-62
2023/10/23 07:21:00;;;;;;;6.10;2.00;;;20.50;99.90;;;;;;5111849;28;20047;-62
2023/10/23 07:24:04;;;;;;;9.77;2.50;;;20.80;99.90;;;;;;5111821;28;20498;-63
2023/10/23 07:27:14;;;;;;;5.10;2.05;;;20.80;99.90;;;;;;5111572;28;20034;-64
2023/10/23 07:30:18;;;;;;;7.35;3.30;;;20.90;99.90;;;;;;5111507;28;20602;-64
2023/10/23 07:33:22;;;;;;;4.30;1.70;;;21.20;99.90;;;;;;5111876;28;20498;-64
2023/10/23 07:36:26;;;;;;;8.73;2.30;;;21.10;99.90;;;;;;5111624;28;20055;-64
2023/10/23 07:39:30;;;;;;;13.10;2.10;;;21.50;99.90;;;;;;5111494;28;20047;-64
2023/10/23 07:42:34;;;;;;;6.60;2.67;;;21.30;99.90;;;;;;5111767;28;20047;-63
2023/10/23 07:45:39;;;;;;;7.32;1.77;;;21.40;99.90;;;;;;5111644;28;20042;-63
2023/10/23 07:48:43;;;;;;;9.20;1.75;;;21.50;99.90;;;;;;5111352;28;20403;-64
2023/10/23 07:51:47;;;;;;;11.27;2.33;;;21.70;99.90;;;;;;5111570;28;20046;-63
2023/10/23 07:54:51;;;;;;;9.05;2.05;;;21.70;99.80;;;;;;5111103;28;20050;-63
2023/10/23 07:57:55;;;;;;;9.52;2.65;;;21.80;99.80;;;;;;5111017;28;20526;-63
2023/10/23 08:01:09;;;;;;;9.40;2.00;;;22.00;99.60;;;;;;5111046;28;20038;-63
2023/10/23 08:04:13;;;;;;;7.30;1.60;;;22.10;99.70;;;;;;5111041;28;20503;-63
2023/10/23 08:07:17;;;;;;;5.10;1.58;;;22.30;99.70;;;;;;5111383;28;20109;-62
2023/10/23 08:10:21;;;;;;;9.50;2.00;;;22.40;99.40;;;;;;5111089;28;20048;-63
2023/10/23 08:13:25;;;;;;;5.97;2.08;;;22.50;99.00;;;;;;5111202;28;20039;-63
2023/10/23 08:16:29;;;;;;;7.28;2.22;;;22.50;98.80;;;;;;5111084;28;20624;-63
2023/10/23 08:19:32;;;;;;;5.47;2.17;;;22.60;98.80;;;;;;5111274;28;20387;-63
2023/10/23 08:22:37;;;;;;;10.23;1.83;;;22.70;98.50;;;;;;5110955;28;20054;-63
2023/10/23 08:25:41;;;;;;;5.20;1.50;;;22.70;98.20;;;;;;5110906;28;20509;-63
2023/10/23 08:28:45;;;;;;;9.88;1.70;;;22.80;98.50;;;;;;5111019;28;20063;-63
2023/10/23 08:31:49;;;;;;;10.38;1.80;;;22.90;98.60;;;;;;5111022;28;20046;-63
2023/10/23 08:34:54;;;;;;;3.22;1.20;;;23.10;97.90;;;;;;5111038;28;20046;-63
2023/10/23 08:38:00;;;;;;;6.97;1.52;;;23.20;97.90;;;;;;5111049;28;20042;-63
2023/10/23 08:41:05;;;;;;;9.60;1.40;;;23.40;97.80;;;;;;5111277;28;20047;-63
2023/10/23 08:44:09;;;;;;;5.30;1.50;;;23.40;97.40;;;;;;5111049;28;20048;-64
2023/10/23 08:47:17;;;;;;;3.67;1.10;;;23.50;97.60;;;;;;5110356;28;20396;-63
2023/10/23 08:50:21;;;;;;;12.05;2.00;;;23.60;97.40;;;;;;5110809;28;20191;-62
2023/10/23 08:53:33;;;;;;;6.95;2.00;;;23.60;97.20;;;;;;5113964;28;20046;-63
2023/10/23 08:56:42;;;;;;;2.45;1.10;;;23.60;96.90;;;;;;5114528;28;20051;-63
2023/10/23 08:59:46;;;;;;;4.78;1.40;;;23.60;97.00;;;;;;5114521;28;20051;-63
2023/10/23 09:02:51;;;;;;;6.30;1.70;;;23.60;96.90;;;;;;5114628;28;20058;-63
2023/10/23 09:05:57;;;;;;;6.93;1.20;;;23.60;96.40;;;;;;5073911;28;20071;-63
2023/10/23 09:09:05;;;;;;;6.45;1.52;;;23.60;96.50;;;;;;5073856;28;20043;-63
2023/10/23 09:12:30;;;;;;;10.68;1.50;;;23.60;96.20;;;;;;5073668;28;20039;-63
2023/10/23 09:15:35;;;;;;;5.65;1.42;;;23.60;96.00;;;;;;5073482;28;20055;-63
2023/10/23 09:18:53;;;;;;;2.67;1.20;;;23.50;96.10;;;;;;5073784;28;20068;-64
2023/10/23 09:21:57;;;;;;;5.97;1.85;;;23.60;96.10;;;;;;5073784;28;20043;-63
2023/10/23 09:25:01;;;;;;;5.35;1.70;;;23.80;94.80;;;;;;5073439;28;20114;-64
2023/10/23 09:28:12;;;;;;;5.82;2.10;;;24.30;94.30;;;;;;5073620;28;20052;-64
2023/10/23 09:31:16;;;;;;;6.10;2.08;;;24.20;94.50;;;;;;5073228;28;20043;-63
2023/10/23 09:34:21;;;;;;;5.88;1.45;;;24.40;93.40;;;;;;5073408;28;20122;-64
2023/10/23 09:37:26;;;;;;;5.22;1.85;;;24.50;93.20;;;;;;5074268;28;20507;-64
2023/10/23 09:40:30;;;;;;;3.67;1.60;;;24.70;92.40;;;;;;5073624;28;20040;-63
2023/10/23 09:43:34;;;;;;;4.55;1.90;;;24.80;92.10;;;;;;5073063;28;20047;-63
2023/10/23 09:46:38;;;;;;;9.27;1.50;;;24.90;91.70;;;;;;5073207;28;20037;-63
2023/10/23 09:49:43;;;;;;;5.32;1.50;;;25.00;91.00;;;;;;5073116;28;20056;-63
2023/10/23 09:52:48;;;;;;;9.05;1.73;;;25.00;90.90;;;;;;5073120;28;20043;-63
2023/10/23 09:55:54;;;;;;;6.47;1.42;;;24.80;90.50;;;;;;5072773;28;20060;-63
2023/10/23 09:59:03;;;;;;;8.10;1.63;;;24.60;90.60;;;;;;5073078;28;20396;-63
2023/10/23 10:02:09;;;;;;;3.53;1.58;;;24.40;91.10;;;;;;5072787;28;20055;-63
2023/10/23 10:05:29;;;;;;;5.43;2.03;;;24.30;90.90;;;;;;5103739;28;20046;-63
2023/10/23 10:08:37;;;;;;;5.85;1.40;;;24.30;90.90;;;;;;5113542;28;20051;-63
2023/10/23 10:11:45;;;;;;;6.15;1.55;;;24.30;90.90;;;;;;5112946;28;20074;-62
2023/10/23 10:14:49;;;;;;;4.80;1.55;;;24.30;90.70;;;;;;5113333;28;20391;-63
2023/10/23 10:17:53;;;;;;;12.63;1.83;;;24.50;90.20;;;;;;5112154;28;20059;-63
2023/10/23 10:21:04;;;;;;;7.15;1.88;;;24.60;89.40;;;;;;5112823;28;20042;-63
2023/10/23 10:24:10;;;;;;;3.08;1.30;;;24.90;89.00;;;;;;5113414;28;20051;-63
2023/10/23 10:27:14;;;;;;;5.60;1.52;;;25.00;88.30;;;;;;5112545;28;20043;-63
2023/10/23 10:30:42;;;;;;;6.00;1.30;;;25.10;89.10;;;;;;5112967;28;20055;-63
2023/10/23 10:33:46;;;;;;;6.45;2.38;;;25.30;89.10;;;;;;5112976;28;20047;-62
2023/10/23 10:36:50;;;;;;;5.60;1.48;;;25.40;88.50;;;;;;5112620;28;20058;-62
2023/10/23 10:39:58;;;;;;;7.22;1.55;;;25.40;87.30;;;;;;5112513;28;20058;-63
2023/10/23 10:43:05;;;;;;;3.42;1.35;;;25.40;87.20;;;;;;5112796;28;20054;-62
2023/10/23 10:46:23;;;;;;;4.43;1.10;;;25.60;86.20;;;;;;5112617;28;20489;-62
2023/10/23 10:49:31;;;;;;;9.18;1.67;;;25.50;86.70;;;;;;5112294;28;20039;-62
2023/10/23 10:52:42;;;;;;;3.63;1.42;;;25.50;87.30;;;;;;5112616;28;20042;-62
2023/10/23 10:55:47;;;;;;;7.75;1.80;;;25.50;88.00;;;;;;5112726;28;20054;-62
2023/10/23 10:58:51;;;;;;;7.47;2.13;;;25.50;88.00;;;;;;5112423;28;20047;-62
2023/10/23 11:01:55;;;;;;;5.57;1.50;;;25.60;88.20;;;;;;5111917;28;20058;-62
2023/10/23 11:04:59;;;;;;;7.82;1.70;;;25.50;86.60;;;;;;5111533;28;20059;-62
2023/10/23 11:08:03;;;;;;;5.75;1.60;;;25.50;86.80;;;;;;5111858;28;20102;-62
2023/10/23 11:11:07;;;;;;;8.65;2.28;;;25.50;87.20;;;;;;5111927;28;20046;-62
2023/10/23 11:14:11;;;;;;;9.27;2.45;;;25.40;88.10;;;;;;5111556;28;20423;-63
2023/10/23 11:17:16;;;;;;;7.68;2.33;;;25.40;88.90;;;;;;5111742;28;20067;-62
2023/10/23 11:20:21;;;;;;;5.10;1.75;;;25.30;89.40;;;;;;5111766;28;20042;-62
2023/10/23 11:23:25;;;;;;;10.35;1.70;;;25.30;88.60;;;;;;5111910;28;20498;-62
2023/10/23 11:26:29;;;;;;;4.60;1.63;;;25.30;88.30;;;;;;5112064;28;20387;-63
2023/10/23 11:29:39;;;;;;;4.70;1.20;;;25.30;88.10;;;;;;5111279;28;20047;-62
2023/10/23 11:32:44;;;;;;;8.75;1.67;;;25.30;89.20;;;;;;5111723;28;20050;-62
2023/10/23 11:35:48;;;;;;;8.98;2.17;;;25.30;88.90;;;;;;5111672;28;20050;-63
2023/10/23 11:38:52;;;;;;;6.32;2.45;;;25.20;88.80;;;;;;5110563;28;20051;-62
2023/10/23 11:41:57;;;;;;;6.43;2.00;;;25.30;88.40;;;;;;5111582;28;20430;-62
2023/10/23 11:45:02;;;;;;;11.18;1.90;;;25.30;88.90;;;;;;5111630;28;20042;-62
2023/10/23 11:48:12;;;;;;;7.07;1.67;;;25.10;88.10;;;;;;5111394;28;20403;-62
2023/10/23 11:51:16;;;;;;;6.07;1.65;;;25.10;88.50;;;;;;5111437;28;20046;-62
2023/10/23 11:54:23;;;;;;;5.20;1.40;;;23.40;86.90;;;;;;5111288;28;20513;-62
2023/10/23 11:57:27;;;;;;;3.88;1.40;;;25.10;88.20;;;;;;5111361;28;20051;-62
2023/10/23 12:00:37;;;;;;;6.20;1.67;;;25.10;87.90;;;;;;5110417;28;20050;-62
2023/10/23 12:03:41;;;;;;;6.13;1.55;;;25.10;88.90;;;;;;5111252;28;20203;-62
2023/10/23 12:06:44;;;;;;;5.43;1.60;;;25.10;88.40;;;;;;5111327;28;20046;-62
2023/10/23 12:09:48;;;;;;;12.43;1.77;;;25.10;88.30;;;;;;5111029;28;20050;-62
2023/10/23 12:12:54;;;;;;;11.02;1.83;;;25.00;87.30;;;;;;5111318;28;20043;-63
2023/10/23 12:15:58;;;;;;;9.13;1.60;;;25.00;87.50;;;;;;5111291;28;20058;-62
2023/10/23 12:19:03;;;;;;;7.25;1.80;;;24.90;87.80;;;;;;5111089;28;20058;-62
2023/10/23 12:22:06;;;;;;;7.00;1.98;;;24.90;87.60;;;;;;5111295;28;20122;-63
2023/10/23 12:25:16;;;;;;;7.35;1.95;;;24.90;88.00;;;;;;5110944;28;20121;-62
2023/10/23 12:28:20;;;;;;;8.35;1.92;;;24.90;88.00;;;;;;5114939;28;20371;-63
2023/10/23 12:31:26;;;;;;;12.02;1.85;;;24.80;87.80;;;;;;5115463;28;20050;-63
2023/10/23 12:34:31;;;;;;;6.32;1.58;;;24.80;88.00;;;;;;5115079;28;20501;-63
2023/10/23 12:37:37;;;;;;;8.63;1.50;;;24.80;88.50;;;;;;5114865;28;20050;-63
2023/10/23 12:40:42;;;;;;;13.88;2.80;;;24.70;88.00;;;;;;5115135;28;20050;-63
2023/10/23 12:43:47;;;;;;;5.05;1.63;;;24.70;88.00;;;;;;5115291;28;20383;-63
2023/10/23 12:46:51;;;;;;;11.75;1.83;;;24.80;87.40;;;;;;5115044;28;20050;-65
2023/10/23 12:49:56;;;;;;;5.55;1.80;;;24.80;87.50;;;;;;5114922;28;20051;-64
2023/10/23 12:53:00;;;;;;;10.98;1.70;;;24.80;87.50;;;;;;5114661;28;20387;-63
2023/10/23 12:56:04;;;;;;;6.68;1.45;;;24.80;86.00;;;;;;5114962;28;20050;-63
2023/10/23 12:59:08;;;;;;;8.52;1.55;;;24.80;86.10;;;;;;5114705;28;20043;-63
2023/10/23 13:02:12;;;;;;;7.00;1.42;;;24.80;85.90;;;;;;5113929;28;20046;-63
2023/10/23 13:05:16;;;;;;;12.15;1.90;;;24.80;85.50;;;;;;5114240;28;20407;-63
2023/10/23 13:08:20;;;;;;;6.45;1.60;;;24.70;85.40;;;;;;5114872;28;20054;-65
2023/10/23 13:11:24;;;;;;;8.30;2.30;;;24.80;85.90;;;;;;5114428;28;20125;-63
2023/10/23 13:14:28;;;;;;;10.20;2.72;;;24.70;86.30;;;;;;5114514;28;20391;-64
2023/10/23 13:17:32;;;;;;;6.05;2.00;;;24.70;86.90;;;;;;5114198;28;20054;-63
2023/10/23 13:20:36;;;;;;;5.78;1.80;;;24.70;87.10;;;;;;5114284;28;20052;-63
2023/10/23 13:23:40;;;;;;;11.98;2.47;;;24.80;87.70;;;;;;5114388;28;20067;-63
2023/10/23 13:26:44;;;;;;;12.77;2.15;;;24.80;88.30;;;;;;5113914;28;20042;-63
2023/10/23 13:29:48;;;;;;;6.97;2.15;;;24.70;88.60;;;;;;5114173;28;20050;-62
2023/10/23 13:32:52;;;;;;;7.43;2.40;;;24.70;87.70;;;;;;5114187;28;20047;-62
2023/10/23 13:35:56;;;;;;;10.18;2.08;;;24.70;88.30;;;;;;5113996;28;20041;-64
2023/10/23 13:39:05;;;;;;;8.18;2.00;;;24.70;88.50;;;;;;5113220;28;20055;-62
2023/10/23 13:42:10;;;;;;;9.93;1.98;;;24.50;88.50;;;;;;5113934;28;20043;-62
2023/10/23 13:45:14;;;;;;;9.00;2.00;;;24.70;88.70;;;;;;5113791;28;20058;-62
2023/10/23 13:48:17;;;;;;;16.20;2.75;;;24.70;88.60;;;;;;5112827;28;20035;-62
2023/10/23 13:51:22;;;;;;;9.25;2.25;;;24.60;89.00;;;;;;5113743;28;20054;-62
2023/10/23 13:54:27;;;;;;;5.25;2.20;;;24.60;89.20;;;;;;5113550;28;20592;-62
2023/10/23 13:57:31;;;;;;;10.65;2.10;;;24.60;89.40;;;;;;5113450;28;20058;-62
2023/10/23 14:00:35;;;;;;;10.45;2.72;;;24.60;89.20;;;;;;5113159;28;20034;-64
2023/10/23 14:03:38;;;;;;;19.48;2.20;;;24.60;89.40;;;;;;5112780;28;20046;-60
2023/10/23 14:06:43;;;;;;;12.68;2.67;;;24.60;90.10;;;;;;5113434;28;20050;-61
2023/10/23 14:09:47;;;;;;;9.98;2.42;;;24.50;90.10;;;;;;5113212;28;20046;-62
2023/10/23 14:12:51;;;;;;;8.77;2.20;;;24.50;90.00;;;;;;5112962;28;20051;-62
2023/10/23 14:15:55;;;;;;;6.65;2.13;;;24.40;90.10;;;;;;5112793;28;20039;-62
2023/10/23 14:19:00;;;;;;;6.68;1.75;;;24.50;90.40;;;;;;5112640;28;20038;-62
2023/10/23 14:22:07;;;;;;;12.20;4.13;;;24.50;90.40;;;;;;5112949;28;20711;-62
2023/10/23 14:25:11;;;;;;;6.45;2.80;;;24.40;90.60;;;;;;5113119;28;20493;-62
2023/10/23 14:28:15;;;;;;;10.05;3.10;;;24.40;90.50;;;;;;5112670;28;20046;-62
2023/10/23 14:31:19;;;;;;;8.48;2.40;;;24.30;90.70;;;;;;5112364;28;20043;-61
2023/10/23 14:34:23;;;;;;;15.85;3.00;;;24.40;90.80;;;;;;5112711;28;20050;-61
2023/10/23 14:37:27;;;;;;;6.82;2.15;;;24.30;91.00;;;;;;5112030;28;20055;-61
2023/10/23 14:40:31;;;;;;;11.68;3.08;;;24.30;91.10;;;;;;5112612;28;20116;-61
2023/10/23 14:43:35;;;;;;;5.28;2.15;;;24.30;91.20;;;;;;5112544;28;20043;-61
2023/10/23 14:46:39;;;;;;;7.55;2.47;;;24.30;91.20;;;;;;5112649;28;20042;-60
2023/10/23 14:49:43;;;;;;;10.23;3.30;;;24.20;91.20;;;;;;5111803;28;20046;-61
2023/10/23 14:52:48;;;;;;;8.23;3.47;;;24.20;91.30;;;;;;5112582;28;20042;-61
2023/10/23 14:55:52;;;;;;;10.13;4.00;;;24.20;91.40;;;;;;5112537;28;20054;-62
2023/10/23 14:58:56;;;;;;;19.65;4.32;;;24.20;91.50;;;;;;5112429;28;20654;-62
2023/10/23 15:02:00;;;;;;;16.50;3.67;;;24.20;91.70;;;;;;5112398;28;20506;-62
2023/10/23 15:05:04;;;;;;;12.15;3.33;;;24.10;91.90;;;;;;5112103;28;20058;-62
2023/10/23 15:08:09;;;;;;;14.07;3.40;;;24.00;91.70;;;;;;5112056;28;20038;-62
2023/10/23 15:11:14;;;;;;;10.05;3.03;;;24.10;92.00;;;;;;5111975;28;20399;-62
2023/10/23 15:14:18;;;;;;;16.30;3.15;;;24.00;92.00;;;;;;5111928;28;20047;-62
2023/10/23 15:17:22;;;;;;;14.18;3.00;;;23.90;91.80;;;;;;5111779;28;20097;-61
2023/10/23 15:20:29;;;;;;;12.95;3.38;;;23.90;92.10;;;;;;5112044;28;20042;-62
2023/10/23 15:23:33;;;;;;;15.38;3.80;;;24.00;92.20;;;;;;5111844;28;20043;-63
2023/10/23 15:26:38;;;;;;;15.63;2.90;;;23.90;92.40;;;;;;5112043;28;20039;-62
2023/10/23 15:29:42;;;;;;;10.98;2.78;;;23.80;92.20;;;;;;5111807;28;20073;-62
2023/10/23 15:32:46;;;;;;;16.02;2.75;;;23.80;92.60;;;;;;5112389;28;20035;-62
2023/10/23 15:35:52;;;;;;;27.42;8.00;;;23.70;92.60;;;;;;5111948;28;20046;-62
2023/10/23 15:38:56;;;;;;;22.30;3.80;;;23.60;92.70;;;;;;5111502;28;20054;-62
2023/10/23 15:42:01;;;;;;;19.30;3.60;;;23.50;92.80;;;;;;5111784;28;20046;-61
2023/10/23 15:45:06;;;;;;;15.73;2.80;;;23.50;92.90;;;;;;5111812;28;20042;-61
2023/10/23 15:48:10;;;;;;;17.30;3.47;;;23.40;93.00;;;;;;5111722;28;20501;-61
2023/10/23 15:51:14;;;;;;;16.63;3.97;;;23.50;92.90;;;;;;5110703;28;20039;-62
2023/10/23 15:54:18;;;;;;;18.38;3.35;;;23.40;93.00;;;;;;5111621;28;20031;-62
2023/10/23 15:57:22;;;;;;;19.20;3.67;;;23.30;93.10;;;;;;5111378;28;20418;-62
2023/10/23 16:00:26;;;;;;;18.42;4.32;;;23.20;93.30;;;;;;5112782;28;20039;-62
2023/10/23 16:03:36;;;;;;;22.45;3.33;;;23.20;93.30;;;;;;5117934;28;20398;-62
2023/10/23 16:06:40;;;;;;;13.50;3.50;;;23.20;93.20;;;;;;5118142;28;20050;-63
2023/10/23 16:09:44;;;;;;;19.85;4.20;;;23.10;93.40;;;;;;5117971;28;20047;-62
2023/10/23 16:12:48;;;;;;;24.10;3.90;;;23.10;93.40;;;;;;5117931;28;20046;-62
2023/10/23 16:15:52;;;;;;;18.50;3.25;;;23.10;93.30;;;;;;5117936;28;20046;-62
2023/10/23 16:18:58;;;;;;;15.75;3.70;;;23.10;93.50;;;;;;5117892;28;20046;-62
2023/10/23 16:22:04;;;;;;;15.00;3.30;;;23.00;93.50;;;;;;5117718;28;20038;-62
2023/10/23 16:25:09;;;;;;;13.15;3.40;;;23.00;93.60;;;;;;5118213;28;20395;-61
2023/10/23 16:28:13;;;;;;;18.10;3.85;;;22.90;93.70;;;;;;5116144;28;20066;-67
2023/10/23 16:31:17;;;;;;;23.17;3.88;;;22.80;93.80;;;;;;5114387;28;20378;-67
2023/10/23 16:34:21;;;;;;;17.98;3.67;;;22.80;94.00;;;;;;5115178;28;20042;-67
2023/10/23 16:37:31;;;;;;;21.58;4.70;;;22.70;94.20;;;;;;5115830;28;20526;-67
2023/10/23 16:40:34;;;;;;;21.27;4.07;;;22.60;94.30;;;;;;5116344;28;20042;-67
2023/10/23 16:43:41;;;;;;;23.92;4.40;;;22.60;94.50;;;;;;5117336;28;20395;-67
2023/10/23 16:46:45;;;;;;;23.58;5.13;;;22.50;94.60;;;;;;5117550;28;20054;-66
2023/10/23 16:49:50;;;;;;;22.77;4.45;;;21.40;94.40;;;;;;5117424;28;20035;-66